sensor_id;sensor_type;location;lat;lon;timestamp;pressure;altitude;pressure_sealevel;temperature;humidity
29733;BME280;16643;43.158;25.302;2023-04-26T00:01:31;97038.31;;;11.49;100.00
29733;BME280;16643;43.158;25.302;2023-04-26T00:03:57;97040.44;;;11.58;100.00
29733;BME280;16643;43.158;25.302;2023-04-26T00:06:23;97065.91;;;11.69;100.00
29733;BME280;16643;43.158;25.302;2023-04-26T00:08:48;97037.84;;;11.58;100.00
29733;BME280;16643;43.158;25.302;2023-04-26T00:11:14;97044.81;;;11.58;100.00
29733;BME280;16643;43.158;25.302;2023-04-26T00:13:39;97061.00;;;11.63;100.00
29733;BME280;16643;43.158;25.302;2023-04-26T00:16:05;97048.00;;;11.63;100.00
29733;BME280;16643;43.158;25.302;2023-04-26T00:18:31;97062.47;;;11.69;100.00
29733;BME280;16643;43.158;25.302;2023-04-26T00:20:57;97010.41;;;11.36;100.00
29733;BME280;16643;43.158;25.302;2023-04-26T00:23:22;97027.13;;;11.47;100.00
29733;BME280;16643;43.158;25.302;2023-04-26T00:25:48;97014.91;;;11.32;100.00
29733;BME280;16643;43.158;25.302;2023-04-26T00:28:14;97038.38;;;11.48;100.00
29733;BME280;16643;43.158;25.302;2023-04-26T00:30:40;97011.72;;;11.27;100.00
29733;BME280;16643;43.158;25.302;2023-04-26T00:33:12;97027.38;;;11.43;100.00
29733;BME280;16643;43.158;25.302;2023-04-26T00:35:37;97035.53;;;11.52;100.00
29733;BME280;16643;43.158;25.302;2023-04-26T00:38:03;97036.22;;;11.56;100.00
29733;BME280;16643;43.158;25.302;2023-04-26T00:40:29;97037.53;;;11.47;100.00
29733;BME280;16643;43.158;25.302;2023-04-26T00:42:58;97046.50;;;11.59;100.00
29733;BME280;16643;43.158;25.302;2023-04-26T00:45:24;97035.16;;;11.60;100.00
29733;BME280;16643;43.158;25.302;2023-04-26T00:47:50;97027.06;;;11.49;100.00
29733;BME280;16643;43.158;25.302;2023-04-26T00:50:15;97035.38;;;11.55;100.00
29733;BME280;16643;43.158;25.302;2023-04-26T00:52:42;97044.81;;;11.58;100.00
29733;BME280;16643;43.158;25.302;2023-04-26T00:55:09;97010.63;;;11.31;100.00
29733;BME280;16643;43.158;25.302;2023-04-26T00:57:35;97024.94;;;11.40;100.00
29733;BME280;16643;43.158;25.302;2023-04-26T01:00:00;97038.94;;;11.37;100.00
29733;BME280;16643;43.158;25.302;2023-04-26T01:02:26;97005.41;;;11.31;100.00
29733;BME280;16643;43.158;25.302;2023-04-26T01:04:52;97018.06;;;11.39;100.00
29733;BME280;16643;43.158;25.302;2023-04-26T01:07:17;97034.09;;;11.47;100.00
29733;BME280;16643;43.158;25.302;2023-04-26T01:09:43;97020.19;;;11.31;100.00
29733;BME280;16643;43.158;25.302;2023-04-26T01:12:09;97031.56;;;11.45;100.00
29733;BME280;16643;43.158;25.302;2023-04-26T01:14:36;97020.88;;;11.34;100.00
29733;BME280;16643;43.158;25.302;2023-04-26T01:17:02;97002.03;;;11.29;100.00
29733;BME280;16643;43.158;25.302;2023-04-26T01:19:28;97004.91;;;11.24;100.00
29733;BME280;16643;43.158;25.302;2023-04-26T01:21:53;97054.28;;;11.42;100.00
29733;BME280;16643;43.158;25.302;2023-04-26T01:24:19;97027.97;;;11.31;100.00
29733;BME280;16643;43.158;25.302;2023-04-26T01:26:45;97020.03;;;11.34;100.00
29733;BME280;16643;43.158;25.302;2023-04-26T01:29:19;97008.94;;;11.30;100.00
29733;BME280;16643;43.158;25.302;2023-04-26T01:31:46;97008.09;;;11.29;100.00
29733;BME280;16643;43.158;25.302;2023-04-26T01:34:12;97020.19;;;11.31;100.00
29733;BME280;16643;43.158;25.302;2023-04-26T01:36:38;97007.34;;;11.27;100.00
29733;BME280;16643;43.158;25.302;2023-04-26T01:39:03;97023.69;;;11.29;100.00
29733;BME280;16643;43.158;25.302;2023-04-26T01:41:30;96997.38;;;11.18;100.00
29733;BME280;16643;43.158;25.302;2023-04-26T01:43:55;96984.56;;;11.15;100.00
29733;BME280;16643;43.158;25.302;2023-04-26T01:46:21;97006.44;;;11.28;100.00
29733;BME280;16643;43.158;25.302;2023-04-26T01:48:47;96991.97;;;11.23;100.00
29733;BME280;16643;43.158;25.302;2023-04-26T01:51:12;97002.16;;;11.27;100.00
29733;BME280;16643;43.158;25.302;2023-04-26T01:53:38;96995.84;;;11.32;100.00
29733;BME280;16643;43.158;25.302;2023-04-26T01:56:04;96940.97;;;11.03;100.00
29733;BME280;16643;43.158;25.302;2023-04-26T01:58:30;97003.59;;;11.33;100.00
29733;BME280;16643;43.158;25.302;2023-04-26T02:01:04;96993.03;;;11.36;100.00
29733;BME280;16643;43.158;25.302;2023-04-26T02:03:30;96968.47;;;11.24;100.00
29733;BME280;16643;43.158;25.302;2023-04-26T02:05:56;97009.31;;;11.40;100.00
29733;BME280;16643;43.158;25.302;2023-04-26T02:08:22;96979.31;;;11.33;100.00
29733;BME280;16643;43.158;25.302;2023-04-26T02:10:47;96964.72;;;11.30;100.00
29733;BME280;16643;43.158;25.302;2023-04-26T02:13:13;96995.22;;;11.44;100.00
29733;BME280;16643;43.158;25.302;2023-04-26T02:15:39;96981.44;;;11.42;100.00
29733;BME280;16643;43.158;25.302;2023-04-26T02:18:05;96989.09;;;11.45;100.00
29733;BME280;16643;43.158;25.302;2023-04-26T02:20:31;96989.09;;;-142.82;100.00
29733;BME280;16643;43.158;25.302;2023-04-26T02:22:57;96954.41;;;11.28;100.00
29733;BME280;16643;43.158;25.302;2023-04-26T02:25:22;96976.56;;;11.36;100.00
29733;BME280;16643;43.158;25.302;2023-04-26T02:27:49;96926.75;;;11.10;100.00
29733;BME280;16643;43.158;25.302;2023-04-26T02:30:15;96968.16;;;11.31;100.00
29733;BME280;16643;43.158;25.302;2023-04-26T02:32:40;96968.34;;;11.27;100.00
29733;BME280;16643;43.158;25.302;2023-04-26T02:35:06;96983.63;;;11.34;100.00
29733;BME280;16643;43.158;25.302;2023-04-26T02:37:32;96959.28;;;11.17;100.00
29733;BME280;16643;43.158;25.302;2023-04-26T02:39:58;96982.06;;;11.29;100.00
29733;BME280;16643;43.158;25.302;2023-04-26T02:42:24;96969.09;;;11.12;100.00
29733;BME280;16643;43.158;25.302;2023-04-26T02:44:49;96953.72;;;11.08;100.00
29733;BME280;16643;43.158;25.302;2023-04-26T02:47:15;96989.28;;;11.24;100.00
29733;BME280;16643;43.158;25.302;2023-04-26T02:49:41;96972.41;;;11.16;100.00
29733;BME280;16643;43.158;25.302;2023-04-26T02:52:06;96972.47;;;11.14;100.00
29733;BME280;16643;43.158;25.302;2023-04-26T02:54:32;96988.94;;;11.15;100.00
29733;BME280;16643;43.158;25.302;2023-04-26T02:56:58;96966.91;;;11.05;100.00
29733;BME280;16643;43.158;25.302;2023-04-26T02:59:23;96953.50;;;10.95;100.00
29733;BME280;16643;43.158;25.302;2023-04-26T03:01:49;96987.78;;;11.03;100.00
29733;BME280;16643;43.158;25.302;2023-04-26T03:04:15;96936.72;;;10.68;100.00
29733;BME280;16643;43.158;25.302;2023-04-26T03:06:41;96942.69;;;10.70;100.00
29733;BME280;16643;43.158;25.302;2023-04-26T03:09:07;96980.88;;;10.85;100.00
29733;BME280;16643;43.158;25.302;2023-04-26T03:11:33;96959.63;;;10.77;100.00
29733;BME280;16643;43.158;25.302;2023-04-26T03:13:58;96986.78;;;10.88;100.00
29733;BME280;16643;43.158;25.302;2023-04-26T03:16:26;96991.75;;;10.93;100.00
29733;BME280;16643;43.158;25.302;2023-04-26T03:18:55;96989.53;;;10.85;100.00
29733;BME280;16643;43.158;25.302;2023-04-26T03:21:21;96976.47;;;10.70;100.00
29733;BME280;16643;43.158;25.302;2023-04-26T03:23:46;96986.53;;;10.76;100.00
29733;BME280;16643;43.158;25.302;2023-04-26T03:26:12;97016.34;;;10.86;100.00
29733;BME280;16643;43.158;25.302;2023-04-26T03:28:38;96991.22;;;10.69;100.00
29733;BME280;16643;43.158;25.302;2023-04-26T03:31:04;97014.75;;;10.66;100.00
29733;BME280;16643;43.158;25.302;2023-04-26T03:33:30;97020.72;;;10.68;100.00
29733;BME280;16643;43.158;25.302;2023-04-26T03:35:56;97019.88;;;10.68;100.00
29733;BME280;16643;43.158;25.302;2023-04-26T03:38:22;97012.34;;;10.62;100.00
29733;BME280;16643;43.158;25.302;2023-04-26T03:40:48;97025.06;;;10.68;100.00
29733;BME280;16643;43.158;25.302;2023-04-26T03:43:13;97033.84;;;10.65;100.00
29733;BME280;16643;43.158;25.302;2023-04-26T03:45:39;97028.72;;;10.64;100.00
29733;BME280;16643;43.158;25.302;2023-04-26T03:48:05;97055.03;;;10.75;100.00
29733;BME280;16643;43.158;25.302;2023-04-26T03:50:30;97048.22;;;10.72;100.00
29733;BME280;16643;43.158;25.302;2023-04-26T03:52:56;97038.00;;;10.69;100.00
29733;BME280;16643;43.158;25.302;2023-04-26T03:55:22;97045.06;;;10.66;100.00
29733;BME280;16643;43.158;25.302;2023-04-26T03:57:48;97023.34;;;10.49;100.00
29733;BME280;16643;43.158;25.302;2023-04-26T04:00:14;97048.06;;;10.58;100.00
29733;BME280;16643;43.158;25.302;2023-04-26T04:02:40;97067.41;;;10.70;100.00
29733;BME280;16643;43.158;25.302;2023-04-26T04:05:06;97042.69;;;10.61;100.00
29733;BME280;16643;43.158;25.302;2023-04-26T04:07:32;97029.38;;;10.50;100.00
29733;BME280;16643;43.158;25.302;2023-04-26T04:09:59;97047.22;;;10.58;100.00
29733;BME280;16643;43.158;25.302;2023-04-26T04:12:25;97057.94;;;10.69;100.00
29733;BME280;16643;43.158;25.302;2023-04-26T04:14:50;97057.16;;;10.67;100.00
29733;BME280;16643;43.158;25.302;2023-04-26T04:17:20;97042.47;;;10.66;100.00
29733;BME280;16643;43.158;25.302;2023-04-26T04:19:45;97048.66;;;10.63;100.00
29733;BME280;16643;43.158;25.302;2023-04-26T04:22:11;97041.03;;;10.60;100.00
29733;BME280;16643;43.158;25.302;2023-04-26T04:24:37;97019.22;;;10.45;100.00
29733;BME280;16643;43.158;25.302;2023-04-26T04:27:03;97072.94;;;10.81;100.00
29733;BME280;16643;43.158;25.302;2023-04-26T04:29:28;97043.72;;;10.76;100.00
29733;BME280;16643;43.158;25.302;2023-04-26T04:31:54;97058.78;;;10.86;100.00
29733;BME280;16643;43.158;25.302;2023-04-26T04:34:20;97072.94;;;10.98;100.00
29733;BME280;16643;43.158;25.302;2023-04-26T04:36:48;97080.31;;;11.07;100.00
29733;BME280;16643;43.158;25.302;2023-04-26T04:39:15;97075.94;;;11.08;100.00
29733;BME280;16643;43.158;25.302;2023-04-26T04:41:42;97070.22;;;11.01;100.00
29733;BME280;16643;43.158;25.302;2023-04-26T04:44:14;97083.38;;;11.15;100.00
29733;BME280;16643;43.158;25.302;2023-04-26T04:46:41;97084.00;;;11.20;100.00
29733;BME280;16643;43.158;25.302;2023-04-26T04:49:07;97068.63;;;11.16;100.00
29733;BME280;16643;43.158;25.302;2023-04-26T04:51:36;97053.03;;;11.16;100.00
29733;BME280;16643;43.158;25.302;2023-04-26T04:54:12;97065.31;;;11.29;100.00
29733;BME280;16643;43.158;25.302;2023-04-26T04:56:38;97068.06;;;11.44;100.00
29733;BME280;16643;43.158;25.302;2023-04-26T04:59:04;97067.94;;;11.47;100.00
29733;BME280;16643;43.158;25.302;2023-04-26T05:01:30;97059.19;;;11.31;100.00
29733;BME280;16643;43.158;25.302;2023-04-26T05:04:00;97046.41;;;11.43;100.00
29733;BME280;16643;43.158;25.302;2023-04-26T05:06:26;97051.69;;;11.59;100.00
29733;BME280;16643;43.158;25.302;2023-04-26T05:08:53;97046.34;;;11.62;100.00
29733;BME280;16643;43.158;25.302;2023-04-26T05:11:18;97049.75;;;11.62;100.00
29733;BME280;16643;43.158;25.302;2023-04-26T05:13:45;97057.41;;;11.65;100.00
29733;BME280;16643;43.158;25.302;2023-04-26T05:16:11;97053.19;;;11.63;100.00
29733;BME280;16643;43.158;25.302;2023-04-26T05:18:37;97039.59;;;11.58;100.00
29733;BME280;16643;43.158;25.302;2023-04-26T05:21:02;97040.28;;;11.61;100.00
29733;BME280;16643;43.158;25.302;2023-04-26T05:23:28;97052.97;;;11.85;100.00
29733;BME280;16643;43.158;25.302;2023-04-26T05:25:55;97054.56;;;11.87;100.00
29733;BME280;16643;43.158;25.302;2023-04-26T05:28:20;97048.06;;;11.96;100.00
29733;BME280;16643;43.158;25.302;2023-04-26T05:30:46;97036.94;;;12.08;100.00
29733;BME280;16643;43.158;25.302;2023-04-26T05:33:12;97015.28;;;12.08;100.00
29733;BME280;16643;43.158;25.302;2023-04-26T05:35:37;97046.13;;;12.31;100.00
29733;BME280;16643;43.158;25.302;2023-04-26T05:38:03;97058.69;;;12.40;99.37
29733;BME280;16643;43.158;25.302;2023-04-26T05:40:29;97030.84;;;12.56;99.15
29733;BME280;16643;43.158;25.302;2023-04-26T05:42:55;97051.09;;;12.83;100.00
29733;BME280;16643;43.158;25.302;2023-04-26T05:45:21;97032.66;;;12.86;95.64
29733;BME280;16643;43.158;25.302;2023-04-26T05:47:47;97050.25;;;13.12;95.39
29733;BME280;16643;43.158;25.302;2023-04-26T05:50:13;97039.59;;;13.17;95.46
29733;BME280;16643;43.158;25.302;2023-04-26T05:52:38;97042.72;;;13.37;96.06
29733;BME280;16643;43.158;25.302;2023-04-26T05:55:04;97036.41;;;13.41;95.12
29733;BME280;16643;43.158;25.302;2023-04-26T05:57:31;97056.44;;;13.41;87.22
29733;BME280;16643;43.158;25.302;2023-04-26T05:59:56;97045.47;;;13.64;90.15
29733;BME280;16643;43.158;25.302;2023-04-26T06:02:22;97067.03;;;13.82;88.91
29733;BME280;16643;43.158;25.302;2023-04-26T06:04:47;97078.53;;;14.08;86.49
29733;BME280;16643;43.158;25.302;2023-04-26T06:07:14;97065.16;;;14.27;85.71
29733;BME280;16643;43.158;25.302;2023-04-26T06:09:41;97055.25;;;14.46;82.44
29733;BME280;16643;43.158;25.302;2023-04-26T06:12:07;97066.63;;;14.59;83.24
29733;BME280;16643;43.158;25.302;2023-04-26T06:14:32;97056.19;;;14.45;82.92
29733;BME280;16643;43.158;25.302;2023-04-26T06:16:58;97044.63;;;14.49;82.84
29733;BME280;16643;43.158;25.302;2023-04-26T06:19:24;97063.97;;;14.73;82.80
29733;BME280;16643;43.158;25.302;2023-04-26T06:21:49;97058.56;;;14.76;84.23
29733;BME280;16643;43.158;25.302;2023-04-26T06:24:19;97055.16;;;14.88;83.84
29733;BME280;16643;43.158;25.302;2023-04-26T06:26:44;97027.94;;;14.91;81.54
29733;BME280;16643;43.158;25.302;2023-04-26T06:29:10;97050.66;;;15.30;81.62
29733;BME280;16643;43.158;25.302;2023-04-26T06:31:36;97064.63;;;15.43;77.52
29733;BME280;16643;43.158;25.302;2023-04-26T06:34:02;97048.16;;;15.41;79.11
29733;BME280;16643;43.158;25.302;2023-04-26T06:36:27;97067.03;;;15.46;80.16
29733;BME280;16643;43.158;25.302;2023-04-26T06:38:53;97078.09;;;15.64;78.80
29733;BME280;16643;43.158;25.302;2023-04-26T06:41:19;97007.25;;;15.13;79.91
29733;BME280;16643;43.158;25.302;2023-04-26T06:43:46;97047.06;;;15.18;80.80
29733;BME280;16643;43.158;25.302;2023-04-26T06:46:12;97086.16;;;15.21;80.23
29733;BME280;16643;43.158;25.302;2023-04-26T06:48:37;97065.97;;;14.97;78.09
29733;BME280;16643;43.158;25.302;2023-04-26T06:51:06;97067.47;;;15.01;77.92
29733;BME280;16643;43.158;25.302;2023-04-26T06:53:34;97011.59;;;14.61;75.06
29733;BME280;16643;43.158;25.302;2023-04-26T06:56:00;97060.16;;;15.18;74.82
29733;BME280;16643;43.158;25.302;2023-04-26T06:58:25;97038.47;;;15.16;74.96
29733;BME280;16643;43.158;25.302;2023-04-26T07:00:54;97075.94;;;15.04;70.29
29733;BME280;16643;43.158;25.302;2023-04-26T07:03:20;97091.22;;;15.37;75.83
29733;BME280;16643;43.158;25.302;2023-04-26T07:05:45;97081.09;;;15.58;73.35
29733;BME280;16643;43.158;25.302;2023-04-26T07:08:11;97086.34;;;15.58;67.36
29733;BME280;16643;43.158;25.302;2023-04-26T07:10:40;97070.38;;;15.48;68.08
29733;BME280;16643;43.158;25.302;2023-04-26T07:13:05;97081.22;;;15.69;68.06
29733;BME280;16643;43.158;25.302;2023-04-26T07:15:31;97087.78;;;16.02;70.18
29733;BME280;16643;43.158;25.302;2023-04-26T07:17:57;97084.56;;;16.47;69.58
29733;BME280;16643;43.158;25.302;2023-04-26T07:20:23;97081.53;;;16.41;67.38
29733;BME280;16643;43.158;25.302;2023-04-26T07:22:49;97073.91;;;16.00;68.22
29733;BME280;16643;43.158;25.302;2023-04-26T07:25:16;97084.38;;;15.74;66.09
29733;BME280;16643;43.158;25.302;2023-04-26T07:27:41;97094.44;;;15.55;67.63
29733;BME280;16643;43.158;25.302;2023-04-26T07:30:08;97080.13;;;15.46;69.50
29733;BME280;16643;43.158;25.302;2023-04-26T07:32:34;97088.56;;;15.64;67.91
29733;BME280;16643;43.158;25.302;2023-04-26T07:35:04;97065.19;;;15.61;70.31
29733;BME280;16643;43.158;25.302;2023-04-26T07:37:31;97074.31;;;16.06;70.29
29733;BME280;16643;43.158;25.302;2023-04-26T07:39:57;97101.06;;;16.24;66.71
29733;BME280;16643;43.158;25.302;2023-04-26T07:42:24;97099.91;;;16.15;65.30
29733;BME280;16643;43.158;25.302;2023-04-26T07:44:49;97065.72;;;15.91;64.99
29733;BME280;16643;43.158;25.302;2023-04-26T07:47:15;97072.66;;;16.05;64.92
29733;BME280;16643;43.158;25.302;2023-04-26T07:49:41;97074.00;;;16.23;63.80
29733;BME280;16643;43.158;25.302;2023-04-26T07:52:09;97065.81;;;16.15;65.70
29733;BME280;16643;43.158;25.302;2023-04-26T07:54:35;97065.81;;;-142.82;64.73
29733;BME280;16643;43.158;25.302;2023-04-26T07:57:01;97115.78;;;16.14;66.62
29733;BME280;16643;43.158;25.302;2023-04-26T07:59:27;97085.44;;;16.22;65.27
29733;BME280;16643;43.158;25.302;2023-04-26T08:01:52;97034.81;;;15.96;66.09
29733;BME280;16643;43.158;25.302;2023-04-26T08:04:29;97049.28;;;15.64;68.04
29733;BME280;16643;43.158;25.302;2023-04-26T08:06:57;97105.56;;;15.84;65.52
29733;BME280;16643;43.158;25.302;2023-04-26T08:09:22;97103.47;;;16.27;65.44
29733;BME280;16643;43.158;25.302;2023-04-26T08:11:48;97042.78;;;15.95;64.25
29733;BME280;16643;43.158;25.302;2023-04-26T08:14:14;97057.13;;;16.15;65.56
29733;BME280;16643;43.158;25.302;2023-04-26T08:16:40;97108.13;;;16.73;63.64
29733;BME280;16643;43.158;25.302;2023-04-26T08:19:05;97093.69;;;16.54;63.80
29733;BME280;16643;43.158;25.302;2023-04-26T08:21:31;97064.13;;;16.14;59.20
29733;BME280;16643;43.158;25.302;2023-04-26T08:23:57;97083.44;;;16.26;60.75
29733;BME280;16643;43.158;25.302;2023-04-26T08:26:22;97085.53;;;16.33;61.15
29733;BME280;16643;43.158;25.302;2023-04-26T08:28:48;97097.16;;;16.42;61.17
29733;BME280;16643;43.158;25.302;2023-04-26T08:31:13;97085.50;;;16.46;60.57
29733;BME280;16643;43.158;25.302;2023-04-26T08:33:39;97059.47;;;16.56;58.43
29733;BME280;16643;43.158;25.302;2023-04-26T08:36:05;97060.22;;;16.82;60.44
29733;BME280;16643;43.158;25.302;2023-04-26T08:38:31;97080.34;;;16.94;60.05
29733;BME280;16643;43.158;25.302;2023-04-26T08:40:58;97082.13;;;17.17;63.90
29733;BME280;16643;43.158;25.302;2023-04-26T08:43:28;97050.91;;;16.78;61.20
29733;BME280;16643;43.158;25.302;2023-04-26T08:45:54;97086.47;;;16.82;55.96
29733;BME280;16643;43.158;25.302;2023-04-26T08:48:20;97062.59;;;16.61;56.17
29733;BME280;16643;43.158;25.302;2023-04-26T08:50:46;97057.44;;;16.72;54.92
29733;BME280;16643;43.158;25.302;2023-04-26T08:53:15;97059.03;;;16.98;55.97
29733;BME280;16643;43.158;25.302;2023-04-26T08:55:50;97068.41;;;17.14;55.29
29733;BME280;16643;43.158;25.302;2023-04-26T08:58:16;97073.44;;;17.52;58.05
29733;BME280;16643;43.158;25.302;2023-04-26T09:00:43;97063.19;;;17.49;53.50
29733;BME280;16643;43.158;25.302;2023-04-26T09:03:12;97067.81;;;17.45;53.06
29733;BME280;16643;43.158;25.302;2023-04-26T09:05:39;97061.28;;;17.27;55.81
29733;BME280;16643;43.158;25.302;2023-04-26T09:08:16;97082.06;;;17.30;57.27
29733;BME280;16643;43.158;25.302;2023-04-26T09:10:42;97074.50;;;17.38;56.56
29733;BME280;16643;43.158;25.302;2023-04-26T09:13:08;97073.66;;;17.37;60.69
29733;BME280;16643;43.158;25.302;2023-04-26T09:15:36;97058.34;;;17.42;57.49
29733;BME280;16643;43.158;25.302;2023-04-26T09:18:22;97075.84;;;17.55;54.97
29733;BME280;16643;43.158;25.302;2023-04-26T09:21:05;97071.97;;;17.36;52.88
29733;BME280;16643;43.158;25.302;2023-04-26T09:23:32;97058.97;;;17.11;53.35
29733;BME280;16643;43.158;25.302;2023-04-26T09:26:15;97078.91;;;17.14;57.83
29733;BME280;16643;43.158;25.302;2023-04-26T09:28:41;97078.63;;;17.05;59.09
29733;BME280;16643;43.158;25.302;2023-04-26T09:31:07;97070.88;;;16.80;58.66
29733;BME280;16643;43.158;25.302;2023-04-26T09:33:32;97075.09;;;16.70;57.29
29733;BME280;16643;43.158;25.302;2023-04-26T09:36:12;97086.75;;;16.53;59.88
29733;BME280;16643;43.158;25.302;2023-04-26T09:38:42;97089.47;;;16.52;59.23
29733;BME280;16643;43.158;25.302;2023-04-26T09:41:07;97089.00;;;16.34;57.81
29733;BME280;16643;43.158;25.302;2023-04-26T09:43:36;97086.47;;;16.45;61.17
29733;BME280;16643;43.158;25.302;2023-04-26T09:46:02;97085.88;;;16.78;67.48
29733;BME280;16643;43.158;25.302;2023-04-26T09:48:32;97078.56;;;17.18;60.12
29733;BME280;16643;43.158;25.302;2023-04-26T09:56:12;97090.63;;;17.21;59.19
29733;BME280;16643;43.158;25.302;2023-04-26T09:58:55;97075.63;;;16.99;58.70
29733;BME280;16643;43.158;25.302;2023-04-26T10:01:26;97088.91;;;17.09;58.76
29733;BME280;16643;43.158;25.302;2023-04-26T10:03:56;97074.09;;;17.31;59.11
29733;BME280;16643;43.158;25.302;2023-04-26T10:06:22;97082.16;;;17.52;56.99
29733;BME280;16643;43.158;25.302;2023-04-26T10:08:49;97073.03;;;17.34;54.76
29733;BME280;16643;43.158;25.302;2023-04-26T10:11:14;73193.06;;;-142.82;54.76
29733;BME280;16643;43.158;25.302;2023-04-26T10:13:41;97071.88;;;17.14;55.22
29733;BME280;16643;43.158;25.302;2023-04-26T10:16:07;97057.66;;;17.17;54.78
29733;BME280;16643;43.158;25.302;2023-04-26T10:18:34;97080.97;;;17.80;57.37
29733;BME280;16643;43.158;25.302;2023-04-26T10:21:23;97084.22;;;18.06;55.44
29733;BME280;16643;43.158;25.302;2023-04-26T10:23:51;97077.94;;;17.73;55.34
29733;BME280;16643;43.158;25.302;2023-04-26T10:26:52;97071.09;;;18.17;60.18
29733;BME280;16643;43.158;25.302;2023-04-26T10:29:19;97081.25;;;18.22;55.78
29733;BME280;16643;43.158;25.302;2023-04-26T10:34:27;97074.53;;;18.29;55.38
29733;BME280;16643;43.158;25.302;2023-04-26T10:37:25;97071.44;;;18.46;53.60
29733;BME280;16643;43.158;25.302;2023-04-26T10:40:21;97081.22;;;18.55;53.22
29733;BME280;16643;43.158;25.302;2023-04-26T10:42:47;97070.00;;;18.64;51.39
29733;BME280;16643;43.158;25.302;2023-04-26T10:45:42;97059.03;;;19.02;53.81
29733;BME280;16643;43.158;25.302;2023-04-26T10:48:28;97071.56;;;19.10;52.43
29733;BME280;16643;43.158;25.302;2023-04-26T10:53:57;97061.59;;;18.93;54.76
29733;BME280;16643;43.158;25.302;2023-04-26T10:59:10;97059.53;;;18.85;53.68
29733;BME280;16643;43.158;25.302;2023-04-26T11:01:37;97076.09;;;18.65;54.59
29733;BME280;16643;43.158;25.302;2023-04-26T11:04:07;97072.28;;;18.58;55.44
29733;BME280;16643;43.158;25.302;2023-04-26T11:06:52;97044.63;;;18.41;52.39
29733;BME280;16643;43.158;25.302;2023-04-26T11:09:47;97069.03;;;18.09;52.99
29733;BME280;16643;43.158;25.302;2023-04-26T11:12:14;97061.16;;;18.09;54.93
29733;BME280;16643;43.158;25.302;2023-04-26T11:14:41;97074.06;;;18.24;54.72
29733;BME280;16643;43.158;25.302;2023-04-26T11:17:08;97065.34;;;18.01;53.44
29733;BME280;16643;43.158;25.302;2023-04-26T11:19:34;97069.72;;;17.78;53.09
29733;BME280;16643;43.158;25.302;2023-04-26T11:22:02;97061.84;;;17.78;54.38
29733;BME280;16643;43.158;25.302;2023-04-26T11:24:31;97061.34;;;17.84;54.14
29733;BME280;16643;43.158;25.302;2023-04-26T11:26:57;97055.88;;;18.09;55.00
29733;BME280;16643;43.158;25.302;2023-04-26T11:29:24;97054.94;;;17.99;53.52
29733;BME280;16643;43.158;25.302;2023-04-26T11:31:54;97053.97;;;18.45;55.71
29733;BME280;16643;43.158;25.302;2023-04-26T11:34:34;97062.38;;;19.04;55.05
29733;BME280;16643;43.158;25.302;2023-04-26T11:37:04;97065.06;;;18.93;54.09
29733;BME280;16643;43.158;25.302;2023-04-26T11:39:31;97052.78;;;18.60;54.29
29733;BME280;16643;43.158;25.302;2023-04-26T11:42:07;97049.75;;;18.54;54.14
29733;BME280;16643;43.158;25.302;2023-04-26T11:44:33;97052.41;;;18.54;53.64
29733;BME280;16643;43.158;25.302;2023-04-26T11:47:04;97060.91;;;18.35;55.35
29733;BME280;16643;43.158;25.302;2023-04-26T11:49:31;97079.44;;;18.33;53.92
29733;BME280;16643;43.158;25.302;2023-04-26T11:51:58;97027.56;;;17.91;55.78
29733;BME280;16643;43.158;25.302;2023-04-26T11:54:29;97066.91;;;18.03;56.81
29733;BME280;16643;43.158;25.302;2023-04-26T11:56:55;97057.31;;;17.80;57.05
29733;BME280;16643;43.158;25.302;2023-04-26T11:59:28;97067.44;;;17.73;55.87
29733;BME280;16643;43.158;25.302;2023-04-26T12:01:55;97047.22;;;17.63;57.31
29733;BME280;16643;43.158;25.302;2023-04-26T12:04:28;97067.22;;;17.53;57.09
29733;BME280;16643;43.158;25.302;2023-04-26T12:06:55;97073.47;;;17.28;58.53
29733;BME280;16643;43.158;25.302;2023-04-26T12:09:27;97063.06;;;17.15;59.81
29733;BME280;16643;43.158;25.302;2023-04-26T12:12:02;97082.03;;;17.19;56.67
29733;BME280;16643;43.158;25.302;2023-04-26T12:14:32;97053.88;;;16.97;58.37
29733;BME280;16643;43.158;25.302;2023-04-26T12:17:02;97079.03;;;17.12;58.75
29733;BME280;16643;43.158;25.302;2023-04-26T12:19:36;97074.25;;;17.17;58.63
29733;BME280;16643;43.158;25.302;2023-04-26T12:22:06;97076.22;;;17.26;59.23
29733;BME280;16643;43.158;25.302;2023-04-26T12:24:32;97070.50;;;17.32;58.60
29733;BME280;16643;43.158;25.302;2023-04-26T12:27:00;97031.97;;;17.09;58.08
29733;BME280;16643;43.158;25.302;2023-04-26T12:29:27;97077.88;;;17.27;58.36
29733;BME280;16643;43.158;25.302;2023-04-26T12:31:55;97049.78;;;17.17;59.55
29733;BME280;16643;43.158;25.302;2023-04-26T12:34:21;97059.63;;;17.26;57.18
29733;BME280;16643;43.158;25.302;2023-04-26T12:36:47;97057.75;;;17.39;58.28
29733;BME280;16643;43.158;25.302;2023-04-26T12:39:13;97057.78;;;17.50;59.14
29733;BME280;16643;43.158;25.302;2023-04-26T12:41:43;97059.97;;;17.56;58.12
29733;BME280;16643;43.158;25.302;2023-04-26T12:44:10;97069.94;;;17.75;58.66
29733;BME280;16643;43.158;25.302;2023-04-26T12:46:36;97032.94;;;17.54;57.87
29733;BME280;16643;43.158;25.302;2023-04-26T12:49:03;97063.63;;;17.89;57.14
29733;BME280;16643;43.158;25.302;2023-04-26T12:51:29;97068.16;;;17.87;55.29
29733;BME280;16643;43.158;25.302;2023-04-26T12:53:56;97052.16;;;17.90;55.57
29733;BME280;16643;43.158;25.302;2023-04-26T12:56:22;97057.31;;;17.80;54.12
29733;BME280;16643;43.158;25.302;2023-04-26T12:58:48;97063.41;;;17.81;56.61
29733;BME280;16643;43.158;25.302;2023-04-26T13:01:14;97063.13;;;17.84;55.54